createdAt,value
2018-11-11T00:00:01.823Z,97.37
2018-11-11T00:05:02.099Z,97.5
2018-11-11T00:10:01.338Z,97.5
2018-11-11T00:15:01.651Z,96.98
2018-11-11T00:20:01.942Z,97
2018-11-11T00:25:01.228Z,97.47
2018-11-11T00:30:01.523Z,97.73
2018-11-11T00:35:01.907Z,97.58
2018-11-11T00:40:02.183Z,97.21
2018-11-11T00:45:01.455Z,95.85
2018-11-11T00:50:01.768Z,95.29
2018-11-11T00:55:02.105Z,93.58
2018-11-11T01:00:01.383Z,93.96
2018-11-11T01:05:01.695Z,93.65
2018-11-11T01:10:01.961Z,91.8
2018-11-11T01:15:01.267Z,89.87
2018-11-11T01:20:01.568Z,89.29
2018-11-11T01:25:01.854Z,88.55
2018-11-11T01:30:02.156Z,87.53
2018-11-11T01:35:01.450Z,87.66
2018-11-11T01:40:01.767Z,87.62
2018-11-11T01:45:02.055Z,87.98
2018-11-11T01:50:01.407Z,87.4
2018-11-11T01:55:01.704Z,86.99
2018-11-11T02:00:02.023Z,87.07
2018-11-11T02:05:01.447Z,86.78
2018-11-11T02:10:01.778Z,86.84
2018-11-11T02:15:02.059Z,86.95
2018-11-11T02:20:01.376Z,87.55
2018-11-11T02:25:01.820Z,87.39
2018-11-11T02:30:02.131Z,87.94
2018-11-11T02:35:01.709Z,87.25
2018-11-11T02:40:01.985Z,87.67
2018-11-11T02:45:01.297Z,88.15
2018-11-11T02:50:01.622Z,88.16
2018-11-11T02:55:01.917Z,88.74
2018-11-11T03:00:01.237Z,88.98
2018-11-11T03:05:02.175Z,88.83
2018-11-11T03:10:01.464Z,88.69
2018-11-11T03:15:01.741Z,88.26
2018-11-11T03:20:02.028Z,88.06
2018-11-11T03:25:01.397Z,86.68
2018-11-11T03:30:01.728Z,86.72
2018-11-11T03:35:02.048Z,87.12
2018-11-11T03:40:01.636Z,87.59
2018-11-11T03:45:01.935Z,88.07
2018-11-11T03:50:01.189Z,88.07
2018-11-11T03:55:01.478Z,88.49
2018-11-11T04:00:01.779Z,88.53
2018-11-11T04:05:02.053Z,89.21
2018-11-11T04:10:01.386Z,89.27
2018-11-11T04:15:01.892Z,89.62
2018-11-11T04:20:02.167Z,90.29
2018-11-11T04:25:01.431Z,90.07
2018-11-11T04:30:01.681Z,89.34
2018-11-11T04:35:01.960Z,88.22
2018-11-11T04:40:01.252Z,88.87
2018-11-11T04:45:01.563Z,87.62
2018-11-11T04:50:01.855Z,87.27
2018-11-11T04:55:02.131Z,86.04
2018-11-11T05:00:01.409Z,85.33
2018-11-11T05:05:01.775Z,84.82
2018-11-11T05:10:02.055Z,85.05
2018-11-11T05:15:01.343Z,85.62
2018-11-11T05:20:01.630Z,86.04
2018-11-11T05:25:01.900Z,86.62
2018-11-11T05:30:01.192Z,87.68
2018-11-11T05:35:01.699Z,88.26
2018-11-11T05:40:01.963Z,88.24
2018-11-11T05:45:01.211Z,87.59
2018-11-11T05:50:01.782Z,87.66
2018-11-11T05:55:02.046Z,86.53
2018-11-11T06:00:01.319Z,85.92
2018-11-11T06:05:01.627Z,85.58
2018-11-11T06:10:01.895Z,83.86
2018-11-11T06:15:02.149Z,83.87
2018-11-11T06:20:01.405Z,83.27
2018-11-11T06:25:01.660Z,83.02
2018-11-11T06:30:01.915Z,82.51
2018-11-11T06:35:01.271Z,82.29
2018-11-11T06:40:01.571Z,82.1
2018-11-11T06:45:01.845Z,81.98
2018-11-11T06:50:02.122Z,81.85
2018-11-11T06:55:01.386Z,82.45
2018-11-11T07:00:01.697Z,82.44
2018-11-11T07:05:01.995Z,82.4
2018-11-11T07:10:01.327Z,83.01
2018-11-11T07:15:01.614Z,82.94
2018-11-11T07:20:01.918Z,82.55
2018-11-11T07:25:01.205Z,83.31
2018-11-11T07:30:01.562Z,82.5
2018-11-11T07:35:01.930Z,82.01
2018-11-11T07:40:01.182Z,81.63
2018-11-11T07:45:01.480Z,82.21
2018-11-11T07:50:01.788Z,82.32
2018-11-11T07:55:02.397Z,83.18
2018-11-11T08:00:01.943Z,83.19
2018-11-11T08:05:01.252Z,82.7
2018-11-11T08:10:01.589Z,84.6
2018-11-11T08:15:01.893Z,83.41
2018-11-11T08:20:02.127Z,83.08
2018-11-11T08:25:01.371Z,82.49
2018-11-11T08:30:01.736Z,82.32
2018-11-11T08:35:02.011Z,80.63
2018-11-11T08:40:01.281Z,80.35
2018-11-11T08:45:01.591Z,79.88
2018-11-11T08:50:01.915Z,79.93
2018-11-11T08:55:01.254Z,80.86
2018-11-11T09:00:01.502Z,79.45
2018-11-11T09:05:02.141Z,78.25
2018-11-11T09:10:01.620Z,78.06
2018-11-11T09:15:01.919Z,78.48
2018-11-11T09:20:01.189Z,78.82
2018-11-11T09:25:01.509Z,78.07
2018-11-11T09:30:01.789Z,78.26
2018-11-11T09:35:02.140Z,79.44
2018-11-11T09:40:01.507Z,79.1
2018-11-11T09:45:01.875Z,78.73
2018-11-11T09:50:02.115Z,76.61
2018-11-11T09:55:01.397Z,76.66
2018-11-11T10:00:01.697Z,77.64
2018-11-11T10:05:02.026Z,78.28
2018-11-11T10:10:01.313Z,77.26
2018-11-11T10:15:01.618Z,78.14
2018-11-11T10:20:02.038Z,77.67
2018-11-11T10:25:01.437Z,77.68
2018-11-11T10:30:01.756Z,78.09
2018-11-11T10:35:02.022Z,78.38
2018-11-11T10:40:01.331Z,78.54
2018-11-11T10:45:01.627Z,77.86
2018-11-11T10:50:01.909Z,78.4
2018-11-11T10:55:02.165Z,79.7
2018-11-11T11:00:01.535Z,78.46
2018-11-11T11:05:02.054Z,78.12
2018-11-11T11:10:01.352Z,79.48
2018-11-11T11:15:01.689Z,79.17
2018-11-11T11:20:01.980Z,78.84
2018-11-11T11:25:01.240Z,78.32
2018-11-11T11:30:01.525Z,79.34
2018-11-11T11:35:01.859Z,79.01
2018-11-11T11:40:02.093Z,79.71
2018-11-11T11:45:01.410Z,78.99
2018-11-11T11:50:01.870Z,77.12
2018-11-11T11:55:01.415Z,76.55
2018-11-11T12:00:01.727Z,77.55
2018-11-11T12:05:01.991Z,76.68
2018-11-11T12:10:01.263Z,74.76
2018-11-11T12:15:01.613Z,73.79
2018-11-11T12:20:01.915Z,74.43
2018-11-11T12:25:02.162Z,74.94
2018-11-11T12:30:01.415Z,75.3
2018-11-11T12:35:01.801Z,74.06
2018-11-11T12:40:02.625Z,74.33
2018-11-11T12:45:01.407Z,74.33
2018-11-11T12:50:01.747Z,75.69
2018-11-11T12:55:02.123Z,76.45
2018-11-11T13:00:01.388Z,75.23
2018-11-11T13:05:01.685Z,76.71
2018-11-11T13:10:01.939Z,76.61
2018-11-11T13:15:01.316Z,75.93
2018-11-11T13:20:01.613Z,76.46
2018-11-11T13:25:01.891Z,77.16
2018-11-11T13:30:02.183Z,77.03
2018-11-11T13:35:01.481Z,77
2018-11-11T13:40:01.807Z,77.74
2018-11-11T13:45:02.051Z,79.5
2018-11-11T13:50:01.361Z,79.54
2018-11-11T13:55:01.655Z,80.85
2018-11-11T14:00:01.935Z,82.02
2018-11-11T14:05:01.242Z,82.13
2018-11-11T14:10:01.590Z,82.66
2018-11-11T14:15:01.881Z,83.05
2018-11-11T14:20:02.186Z,83.95
2018-11-11T14:25:01.493Z,84.06
2018-11-11T14:30:01.820Z,84.4
2018-11-11T14:35:01.335Z,84.17
2018-11-11T14:40:02.066Z,83.98
2018-11-11T14:45:01.642Z,83.69
2018-11-11T14:50:01.970Z,83.29
2018-11-11T14:55:01.296Z,83.24
2018-11-11T15:00:01.645Z,83.44
2018-11-11T15:05:01.950Z,83.72
2018-11-11T15:10:01.263Z,84.21
2018-11-11T15:15:01.570Z,84.31
2018-11-11T15:20:02.387Z,84.24
2018-11-11T15:25:02.020Z,83.89
2018-11-11T15:30:01.457Z,84.05
2018-11-11T15:35:01.777Z,83.96
2018-11-11T15:40:02.040Z,83.81
2018-11-11T15:45:01.350Z,84.14
2018-11-11T15:50:01.663Z,83.97
2018-11-11T15:55:01.935Z,84.5
2018-11-11T16:00:01.196Z,85.53
2018-11-11T16:05:01.529Z,87.7
2018-11-11T16:10:01.802Z,89.69
2018-11-11T16:15:02.077Z,91.89
2018-11-11T16:20:01.455Z,93.8
2018-11-11T16:25:01.861Z,94.42
2018-11-11T16:30:02.093Z,95.55
2018-11-11T16:35:01.473Z,95.52
2018-11-11T16:40:01.755Z,95.53
2018-11-11T16:45:02.134Z,94.05
2018-11-11T16:50:01.443Z,92.48
2018-11-11T16:55:01.769Z,92.87
2018-11-11T17:00:01.253Z,92.81
2018-11-11T17:05:01.560Z,91.55
2018-11-11T17:10:01.860Z,91.71
2018-11-11T17:15:02.088Z,92.99
2018-11-11T17:20:01.685Z,94.29
2018-11-11T17:25:02.178Z,96.71
2018-11-11T17:30:01.639Z,98.38
2018-11-11T17:35:02.176Z,97.92
2018-11-11T17:40:01.555Z,98.5
2018-11-11T17:45:01.972Z,98.43
2018-11-11T17:50:01.221Z,98.53
2018-11-11T17:55:01.511Z,98.67
2018-11-11T18:00:01.836Z,98.82
2018-11-11T18:05:02.137Z,99.18
2018-11-11T18:10:01.421Z,99.03
2018-11-11T18:15:01.709Z,99.09
2018-11-11T18:20:01.990Z,99.11
2018-11-11T18:25:01.238Z,99.33
2018-11-11T18:30:01.505Z,99.5
2018-11-11T18:35:01.788Z,97.64
2018-11-11T18:40:02.261Z,97.4
2018-11-11T18:45:01.759Z,97.21
2018-11-11T18:50:02.015Z,95.9
2018-11-11T18:55:01.268Z,98.7
2018-11-11T19:00:01.640Z,96.43
2018-11-11T19:05:02.010Z,98.47
2018-11-11T19:10:01.604Z,98.42
2018-11-11T19:15:02.158Z,96.51
2018-11-11T19:20:01.430Z,98.5
2018-11-11T19:25:01.787Z,97.8
2018-11-11T19:30:02.105Z,98.72
2018-11-11T19:35:01.469Z,98.64
2018-11-11T19:40:01.762Z,98.66
2018-11-11T19:45:02.035Z,98.56
2018-11-11T19:50:01.330Z,98.74
2018-11-11T19:55:01.650Z,98.26
2018-11-11T20:00:01.943Z,98.06
2018-11-11T20:05:01.270Z,99.08
2018-11-11T20:10:01.562Z,98.83
2018-11-11T20:15:01.863Z,96.55
2018-11-11T20:20:02.090Z,96.66
2018-11-11T20:25:01.356Z,99.03
2018-11-11T20:30:01.657Z,98.85
2018-11-11T20:35:02.130Z,95.99
2018-11-11T20:40:01.537Z,96.54
2018-11-11T20:45:01.774Z,98.37
2018-11-11T20:50:02.001Z,97.53
2018-11-11T20:55:01.283Z,98.27
2018-11-11T21:00:01.735Z,98.32
2018-11-11T21:05:01.989Z,97.55
2018-11-11T21:10:01.269Z,98.04
2018-11-11T21:15:01.758Z,98.39
2018-11-11T21:20:01.991Z,96.25
2018-11-11T21:25:01.214Z,95.73
2018-11-11T21:30:01.480Z,95.07
2018-11-11T21:35:01.718Z,94.22
2018-11-11T21:40:01.997Z,94.62
2018-11-11T21:45:01.235Z,94.51
2018-11-11T21:50:01.539Z,94.12
2018-11-11T21:55:01.796Z,95.28
2018-11-11T22:00:02.067Z,95.05
2018-11-11T22:05:01.360Z,94.19
2018-11-11T22:10:02.159Z,93.08
2018-11-11T22:15:01.717Z,92.03
2018-11-11T22:20:01.954Z,92.38
2018-11-11T22:25:01.217Z,93.63
2018-11-11T22:30:01.520Z,93.18
2018-11-11T22:35:01.775Z,93.22
2018-11-11T22:40:02.010Z,93.25
2018-11-11T22:45:01.237Z,93.97
2018-11-11T22:50:01.477Z,92.55
2018-11-11T22:55:01.704Z,91.61
2018-11-11T23:00:02.085Z,91.55
2018-11-11T23:05:01.445Z,91.22
2018-11-11T23:10:01.730Z,91.83
2018-11-11T23:15:02.036Z,93.03
2018-11-11T23:20:01.262Z,93.44
2018-11-11T23:25:01.490Z,93.48
2018-11-11T23:30:01.762Z,94.23
2018-11-11T23:35:02.008Z,94.32
2018-11-11T23:40:01.239Z,94.47
2018-11-11T23:45:01.469Z,94.49
2018-11-11T23:50:01.748Z,94.35
2018-11-11T23:55:01.996Z,94.19
